AirNav   Everest Fuels
 
 493 users online  

SC56 Thomason Airfield
Mountville, South Carolina, USA

GOING TO MOUNTVILLE?


FAA INFORMATION EFFECTIVE 03 NOVEMBER 2022

Location

FAA Identifier: SC56
Lat/Long: 34-21-48.4510N 081-59-35.3800W
34-21.807517N 081-59.589667W
34.3634586,-81.9931611
(estimated)
Elevation: 642 ft. / 196 m (estimated)
Variation: 04W (1985)
From city: 2 miles W of MOUNTVILLE, SC
Time zone: UTC -5 (UTC -4 during Daylight Saving Time)
Zip code: 29332

Airport Operations

Airport use: Private use. Permission required prior to landing
Activation date: 11/1982
Control tower: no
ARTCC: ATLANTA CENTER
FSS: ANDERSON FLIGHT SERVICE STATION
Attendance: UNATNDD
Wind indicator: yes
Segmented circle: no

Airport Communications

WX AWOS-3 at LUX (9 nm N): 123.975 (864-682-3639)
WX ASOS at GRD (11 nm SW): 121.125 (864-388-9115)
WX AWOS-3 at EOE (18 nm E): 124.275 (803-276-2419)

Nearby radio navigation aids

VOR radial/distance  VOR name  Freq  Var
GRDr051/10.4GREENWOOD VORTAC115.5001W
ELWr095/39.3ELECTRIC CITY VORTAC108.6000E

 
NDB name  Hdg/Dist  Freq  Var  ID
ENOREE287/18.027807WEOE . --- .
UNION COUNTY228/25.932606WUOT ..- --- -

Airport Services

Runway Information

Runway 17/35

Dimensions: 2400 x 75 ft. / 732 x 23 m
Surface: turf
RUNWAY 17  RUNWAY 35
Traffic pattern: leftleft
Obstructions: nonepline, 300 ft. from runway

Airport Ownership and Management from official FAA records

Ownership: Privately-owned
Owner: J. H. THOMASON, III
148 AVIATION DR
MOUNTVILLE, SC 29370-3801
Phone 864-430-3466
Manager: J. H. THOMASON, III
148 AVIATION DR
MOUNTVILLE, SC 29370-3801
Phone 864-430-3466

Airport Operational Statistics

Aircraft based on the field: 2
Single engine airplanes: 2
    

Additional Remarks

FOR CD CTC ATLANTA ARTCC AT 770-210-7692.

Instrument Procedures

There are no published instrument procedures at SC56.

Some nearby airports with instrument procedures:

KLUX - Laurens County Airport (9 nm N)
KGRD - Greenwood County Airport (11 nm SW)
KEOE - Newberry County Airport (18 nm E)
35A - Union County Airport, Troy Shelton Field (26 nm NE)
6J4 - Saluda County Airport (28 nm S)
 
Loc | Ops | Rwys | IFR | FBO | Links
Com | Nav | Svcs | Stats | Notes
Area around SC56 (Thomason Airfield)
 
Road maps at: MapQuest Bing Google
 
Aerial photo
WARNING: Photo may not be current or correct
Aerial photo of SC56 (Thomason Airfield)
Do you have a better or more recent aerial photo of Thomason Airfield that you would like to share? If so, please send us your photo.

 
Sectional chart

 
Airport distance calculator
Flying to Thomason Airfield? Find the distance to fly.

From to SC56

Sunrise and sunset
Times for 29-Nov-2022
 Local
(UTC-5)
 Zulu
(UTC)
Morning civil twilight06:4811:48
Sunrise07:1512:15
Sunset17:1722:17
Evening civil twilight17:4522:45

Current date and time
Zulu (UTC)  29-Nov-2022 08:22:12
Local (UTC-5)  29-Nov-2022 03:22:12
 
METAR
KLUX 
9nm N 
290755Z AUTO 07004KT 10SM CLR 06/05 A3011 RMK AO2
KGRD 
10nm SW 
290756Z AUTO 00000KT 9SM CLR 04/04 A3012 RMK AO2 SLP197 T00390039 $
KEOE 
18nm E 
290755Z AUTO 00000KT 10SM CLR 06/05 A3014 RMK AO2
TAF
KGSP 
34nm N 
290525Z 2906/3006 04005KT P6SM SKC FM291300 05004KT P6SM SKC FM291600 09005KT P6SM SKC FM292200 13004KT P6SM FEW250 FM292300 10003KT P6SM SCT080 BKN250 PROB30 3004/3006 4SM -SHRA BR BKN250
KGMU 
34nm NW 
290525Z 2906/3006 04006KT P6SM SKC FM291400 06006KT P6SM SKC FM291800 14005KT P6SM SKC FM292300 09004KT P6SM SCT080 BKN250 PROB30 3004/3006 4SM -SHRA BR OVC025
KAND 
37nm W 
290525Z 2906/3006 00000KT P6SM SKC FM291300 06004KT P6SM SKC FM292300 11004KT P6SM SCT050 BKN250 FM300200 08003KT P6SM BKN040 PROB30 3004/3006 4SM -SHRA BR OVC025
NOTAMs
Click for the latest NOTAMs
NOTAMs are issued by the DoD/FAA and will open in a separate window not controlled by AirNav.

 

 
 

Would you like to see your business listed on this page?

 If your business provides an interesting product or service to pilots, flight crews, aircraft, or users of the Thomason Airfield, you should consider listing it here.  To start the listing process, click on the button below
 
Add a business
 

Other Pages about Thomason Airfield

Update a link
 
Copyright © AirNav, LLC. All rights reserved. Privacy Policy  Contact